Mansfield Center, Connecticut
Current Conditions -  °F | °C
As of 3:30 AM on Friday 24 Oct 2014 (Local Time) from KIJD Reporting Station
Overcast Overcast  
Wind Chill: 51°   Ceiling: 1400
Heat Index: 51°   Visibility: 10mi
Dew Point: 47°   Wind: 10mph
Humidity: 86%   Direction: 340°NNW
Pressure: 29.69"   Gusts: NA
Location:  41.77°N, 72.2°W
Report Text: KIJD 240730Z AUTO 34009KT 10SM OVC014 11/08 A2969 RMK AO2 T01060083
Loading
Personal Weather Stations






























Interactive Weather Map
Tropical Storm Tracking
New forecast layout! Learn more

10-Day Weather Forecast

Advertisements
Track Severe Weather on mobile